地図

経路データ

SID SEASON NUMBER BASIN SUBBASIN NAME ISO_TIME NATURE LAT LON WMO_WIND WMO_PRES WMO_AGENCY TRACK_TYPE DIST2LAND LANDFALL IFLAG USA_AGENCY USA_ATCF_ID USA_LAT USA_LON USA_RECORD USA_STATUS USA_WIND USA_PRES USA_SSHS USA_R34_NE USA_R34_SE USA_R34_SW USA_R34_NW USA_R50_NE USA_R50_SE USA_R50_SW USA_R50_NW USA_R64_NE USA_R64_SE USA_R64_SW USA_R64_NW USA_POCI USA_ROCI USA_RMW USA_EYE TOKYO_LAT TOKYO_LON TOKYO_GRADE TOKYO_WIND TOKYO_PRES TOKYO_R50_DIR TOKYO_R50_LONG TOKYO_R50_SHORT TOKYO_R30_DIR TOKYO_R30_LONG TOKYO_R30_SHORT TOKYO_LAND CMA_LAT CMA_LON CMA_CAT CMA_WIND CMA_PRES HKO_LAT HKO_LON HKO_CAT HKO_WIND HKO_PRES NEWDELHI_LAT NEWDELHI_LON NEWDELHI_GRADE NEWDELHI_WIND NEWDELHI_PRES NEWDELHI_CI NEWDELHI_DP NEWDELHI_POCI REUNION_LAT REUNION_LON REUNION_TYPE REUNION_WIND REUNION_PRES REUNION_TNUM REUNION_CI REUNION_RMW REUNION_R34_NE REUNION_R34_SE REUNION_R34_SW REUNION_R34_NW REUNION_R50_NE REUNION_R50_SE REUNION_R50_SW REUNION_R50_NW REUNION_R64_NE REUNION_R64_SE REUNION_R64_SW REUNION_R64_NW BOM_LAT BOM_LON BOM_TYPE BOM_WIND BOM_PRES BOM_TNUM BOM_CI BOM_RMW BOM_R34_NE BOM_R34_SE BOM_R34_SW BOM_R34_NW BOM_R50_NE BOM_R50_SE BOM_R50_SW BOM_R50_NW BOM_R64_NE BOM_R64_SE BOM_R64_SW BOM_R64_NW BOM_ROCI BOM_POCI BOM_EYE BOM_POS_METHOD BOM_PRES_METHOD NADI_LAT NADI_LON NADI_CAT NADI_WIND NADI_PRES WELLINGTON_LAT WELLINGTON_LON WELLINGTON_WIND WELLINGTON_PRES DS824_LAT DS824_LON DS824_STAGE DS824_WIND DS824_PRES TD9636_LAT TD9636_LON TD9636_STAGE TD9636_WIND TD9636_PRES TD9635_LAT TD9635_LON TD9635_WIND TD9635_PRES TD9635_ROCI NEUMANN_LAT NEUMANN_LON NEUMANN_CLASS NEUMANN_WIND NEUMANN_PRES MLC_LAT MLC_LON MLC_CLASS MLC_WIND MLC_PRES USA_GUST BOM_GUST BOM_GUST_PER REUNION_GUST REUNION_GUST_PER USA_SEAHGT USA_SEARAD_NE USA_SEARAD_SE USA_SEARAD_SW USA_SEARAD_NW STORM_SPEED STORM_DIR
1992241N13237 1992 77 EP MM MADELINE 1992-08-27 12:00:00 TS 12.7000 -122.600 30 1009 hurdat_epa main 1737 1737 O_____________ hurdat_epa EP151992 12.7000 -122.600 TD 30 1009 -1 8 282
1992241N13237 1992 77 EP MM MADELINE 1992-08-27 15:00:00 TS 12.7851 -122.995 main 1755 1755 P_____________ EP151992 12.7851 -122.995 TD 30 1008 -1 8 284
1992241N13237 1992 77 EP MM MADELINE 1992-08-27 18:00:00 TS 12.9000 -123.400 30 1007 hurdat_epa main 1774 1774 O_____________ hurdat_epa EP151992 12.9000 -123.400 TD 30 1007 -1 9 289
1992241N13237 1992 77 EP MM MADELINE 1992-08-27 21:00:00 TS 13.0574 -123.827 main 1786 1786 P_____________ EP151992 13.0574 -123.827 TD 32 1006 -1 9 289
1992241N13237 1992 77 EP MM MADELINE 1992-08-28 00:00:00 TS 13.2000 -124.300 35 1005 hurdat_epa main 1814 1814 O_____________ hurdat_epa EP151992 13.2000 -124.300 TS 35 1005 0 10 281
1992241N13237 1992 77 EP MM MADELINE 1992-08-28 03:00:00 TS 13.2423 -124.805 main 1851 1851 P_____________ EP151992 13.2423 -124.805 TS 35 1004 0 11 275
1992241N13237 1992 77 EP MM MADELINE 1992-08-28 06:00:00 TS 13.3000 -125.400 35 1003 hurdat_epa main 1889 1889 O_____________ hurdat_epa EP151992 13.3000 -125.400 TS 35 1003 0 13 280
1992241N13237 1992 77 EP MM MADELINE 1992-08-28 09:00:00 TS 13.4621 -126.083 main 1928 1928 P_____________ EP151992 13.4621 -126.083 TS 37 1002 0 15 285
1992241N13237 1992 77 EP MM MADELINE 1992-08-28 12:00:00 TS 13.7000 -126.900 40 1002 hurdat_epa main 1977 1977 O_____________ hurdat_epa EP151992 13.7000 -126.900 TS 40 1002 0 18 287
1992241N13237 1992 77 EP MM MADELINE 1992-08-28 15:00:00 TS 13.9853 -127.885 main 2032 2032 P_____________ EP151992 13.9853 -127.885 TS 42 1001 0 20 287
1992241N13237 1992 77 EP MM MADELINE 1992-08-28 18:00:00 TS 14.3000 -128.900 45 1000 hurdat_epa main 2076 2076 O_____________ hurdat_epa EP151992 14.3000 -128.900 TS 45 1000 0 20 289
1992241N13237 1992 77 EP MM MADELINE 1992-08-28 21:00:00 TS 14.6222 -129.802 main 2117 2116 P_____________ EP151992 14.6222 -129.802 TS 45 999 0 18 290
1992241N13237 1992 77 EP MM MADELINE 1992-08-29 00:00:00 TS 14.9000 -130.600 45 999 hurdat_epa main 2154 2154 O_____________ hurdat_epa EP151992 14.9000 -130.600 TS 45 999 0 15 287
1992241N13237 1992 77 EP MM MADELINE 1992-08-29 03:00:00 TS 15.0723 -131.310 main 2193 2193 P_____________ EP151992 15.0723 -131.310 TS 45 999 0 13 283
1992241N13237 1992 77 EP MM MADELINE 1992-08-29 06:00:00 TS 15.2000 -131.900 45 1000 hurdat_epa main 2233 2233 O_____________ hurdat_epa EP151992 15.2000 -131.900 TS 45 1000 0 11 286
1992241N13237 1992 77 EP MM MADELINE 1992-08-29 09:00:00 TS 15.3646 -132.358 main 2259 2259 P_____________ EP151992 15.3646 -132.358 TS 42 1001 0 9 289
1992241N13237 1992 77 EP MM MADELINE 1992-08-29 12:00:00 TS 15.5000 -132.800 40 1002 hurdat_epa main 2285 2285 O_____________ hurdat_epa EP151992 15.5000 -132.800 TS 40 1002 0 10 281
1992241N13237 1992 77 EP MM MADELINE 1992-08-29 15:00:00 TS 15.5574 -133.363 main 2309 2246 P_____________ EP151992 15.5573 -133.355 TS 40 1002 0 12 275
1992241N13237 1992 77 EP MM MADELINE 1992-08-29 18:00:00 TS 15.6000 -134.000 40 1003 hurdat_epa main 2246 2171 O_____________ hurdat_epa EP151992 15.6000 -134.000 TS 40 1003 0 13 276
1992241N13237 1992 77 EP MM MADELINE 1992-08-29 21:00:00 TS 15.7002 -134.715 main 2171 2095 P_____________ EP151992 15.7004 -134.772 TS 40 1003 0 14 278
1992241N13237 1992 77 EP MM MADELINE 1992-08-30 00:00:00 TS 15.8000 -135.400 40 1003 hurdat_epa main 2095 2041 O_____________ hurdat_epa EP151992 15.8000 -135.500 TS 40 1003 0 12 278
1992241N13237 1992 77 EP MM MADELINE 1992-08-30 03:00:00 TS 15.8645 -135.908 main 2041 1989 P_____________ EP151992 15.8644 -135.965 TS 40 1003 0 10 276
1992241N13237 1992 77 EP MM MADELINE 1992-08-30 06:00:00 TS 15.9000 -136.400 40 1004 hurdat_epa main 1989 1927 O_____________ hurdat_epa EP151992 15.9000 -136.400 TS 40 1004 0 11 272
1992241N13237 1992 77 EP MM MADELINE 1992-08-30 09:00:00 TS 15.9076 -137.043 main 1927 1854 P_____________ EP151992 15.9077 -137.035 TS 40 1004 0 13 270
1992241N13237 1992 77 EP MM MADELINE 1992-08-30 12:00:00 TS 15.9000 -137.700 40 1004 hurdat_epa main 1854 1803 O_____________ hurdat_epa EP151992 15.9000 -137.700 TS 40 1004 0 12 269
1992241N13237 1992 77 EP MM MADELINE 1992-08-30 15:00:00 TS 15.8921 -138.250 main 1793 1741 P_____________ EP151992 15.8921 -138.250 TS 35 1005 0 11 270
1992241N13237 1992 77 EP MM MADELINE 1992-08-30 18:00:00 TS 15.9000 -138.800 30 1006 hurdat_epa main 1741 1679 O_____________ hurdat_epa EP151992 15.9000 -138.800 TD 30 1006 -1 11 272
1992241N13237 1992 77 EP MM MADELINE 1992-08-30 21:00:00 TS 15.9406 -139.425 main 1679 1604 P_____________ EP151992 15.9406 -139.425 TD 27 1008 -1 13 275
1992241N13237 1992 77 EP CP MADELINE 1992-08-31 00:00:00 TS 16.0000 -140.100 25 1010 hurdat_epa main 1604 O_____________ hurdat_epa EP151992 16.0000 -140.100 TD 25 1010 -1 13 275

IBTrACS Databaseについて

本データベースは、米国NOAAが公開する1842年以降の世界の熱帯低気圧のベストトラックデータアーカイブInternational Best Track Archive for Climate Stewardship (IBTrACS)を、ウェブで閲覧しやすい形式に変換したものです。

最終更新日:2021-10-08